Terminal Aerodrome Forecast
Issued by NWS

Home | Current Version | Previous Version | Text Only | Print | Product List | Glossary On
Versions: 1 2 3 4 5 6 7 8 9 10 11 12 13 14 15 16 17 18 19 20 21 22 23 24 25 26 27
000
FTUS42 KMFL 280525
TAFMIA
TAF
KMIA 280525Z 2806/2906 00000KT P6SM FEW100 BKN200
     FM281600 11008KT P6SM VCTS SCT030CB BKN070 BKN250
     FM290000 00000KT P6SM VCSH SCT040 BKN200=

USA.gov is the U.S. government's official web portal to all federal, state and local government web resources and services.